M I D A S
Marine Information and Data Acquisition System
Tripno 1121 of the Zeeleeuw from 2006-04-24 09:05:44 to 2006-04-24 17:00:00
Back to CruiseResearch ActivitiesStationsMapUnderway DataData graphs

EquipmentUnitsComment
TimeDGPSUTC
LatitudeDGPSDM.mWGS84
LongitudeDGPSDM.mWGS84
HeadingGyrodeg 
SOGDGPSknotsSpeed over ground
COGDGPSdegCourse over ground
DepthEcho soundermeters200 kHz
Missing or incorrect values are displayed as -999
Navigation data collected by the RV Zeeleeuw from 2006-04-24 06:44:26 to 2006-04-24 09:08:08
Time Latitude Longitude Heading SOG COG Depth
2006-04-24 06:45:31 51°13.602 2°56.099 126.3 0.1 64 -999
2006-04-24 06:46:31 51°13.602 2°56.099 126.6 0.1 257 -999
2006-04-24 06:47:31 51°13.602 2°56.099 126.7 -999 99 -999
2006-04-24 06:48:31 51°13.602 2°56.099 125.3 -999 108 -999
2006-04-24 06:49:31 51°13.602 2°56.099 125.2 -999 121 -999
2006-04-24 06:50:31 51°13.602 2°56.099 125.5 -999 243 -999
2006-04-24 06:51:31 51°13.601 2°56.099 125.6 -999 333 -999
2006-04-24 06:52:31 51°13.601 2°56.099 126.2 -999 244 -999
2006-04-24 06:53:31 51°13.601 2°56.1 126.4 -999 181 -999
2006-04-24 06:54:31 51°13.602 2°56.1 125.5 -999 45 -999
2006-04-24 06:55:31 51°13.602 2°56.1 126 -999 204 -999
2006-04-24 06:56:31 51°13.602 2°56.099 125.9 -999 212 -999
2006-04-24 06:57:31 51°13.602 2°56.099 125.4 -999 327 -999
2006-04-24 06:58:31 51°13.602 2°56.099 126 -999 338 -999
2006-04-24 06:59:31 51°13.602 2°56.099 127.4 -999 246 -999
2006-04-24 07:00:31 51°13.602 2°56.098 125.2 -999 233 -999
2006-04-24 07:01:31 51°13.603 2°56.099 127.5 0.1 254 -999
2006-04-24 07:02:31 51°13.603 2°56.098 126.6 -999 246 -999
2006-04-24 07:03:30 51°13.603 2°56.098 125.6 -999 115 -999
2006-04-24 07:04:31 51°13.602 2°56.099 126.7 -999 42 -999
2006-04-24 07:05:30 51°13.602 2°56.099 127.3 -999 274 -999
2006-04-24 07:06:31 51°13.602 2°56.099 126.1 -999 219 -999
2006-04-24 07:07:30 51°13.602 2°56.099 126 -999 90 -999
2006-04-24 07:08:30 51°13.602 2°56.099 127.1 -999 170 -999
2006-04-24 07:09:31 51°13.602 2°56.099 126.8 -999 197 -999
2006-04-24 07:10:31 51°13.601 2°56.099 126.4 -999 56 -999
2006-04-24 07:11:31 51°13.601 2°56.099 126.4 -999 118 -999
2006-04-24 07:12:31 51°13.602 2°56.099 127 -999 285 -999
2006-04-24 07:13:31 51°13.605 2°56.1 126.2 -999 263 -999
2006-04-24 07:14:31 51°13.6 2°56.099 127 -999 355 -999
2006-04-24 07:15:31 51°13.604 2°56.101 126.3 -999 313 -999
2006-04-24 07:16:31 51°13.603 2°56.1 126.2 -999 259 -999
2006-04-24 07:17:31 51°13.601 2°56.1 126.3 -999 51 -999
2006-04-24 07:18:31 51°13.602 2°56.1 126.7 -999 298 -999
2006-04-24 07:19:31 51°13.602 2°56.099 125.4 -999 216 -999
2006-04-24 07:20:31 51°13.602 2°56.099 125.2 -999 124 -999
2006-04-24 07:21:31 51°13.602 2°56.099 127 -999 67 -999
2006-04-24 07:22:31 51°13.602 2°56.099 126.8 -999 310 -999
2006-04-24 07:23:31 51°13.602 2°56.099 125.8 -999 242 -999
2006-04-24 07:24:31 51°13.602 2°56.099 126.1 -999 55 -999
2006-04-24 07:25:31 51°13.602 2°56.099 125.9 -999 2 -999
2006-04-24 07:26:31 51°13.602 2°56.099 124.8 -999 171 -999
2006-04-24 07:27:31 51°13.602 2°56.099 125 -999 315 -999
2006-04-24 07:28:31 51°13.602 2°56.099 126.2 -999 211 -999
2006-04-24 07:29:31 51°13.602 2°56.099 126 -999 291 -999
2006-04-24 07:30:31 51°13.601 2°56.099 125.2 -999 174 -999
2006-04-24 07:31:31 51°13.601 2°56.099 126.6 -999 288 -999
2006-04-24 07:32:31 51°13.602 2°56.098 125.2 -999 280 -999
2006-04-24 07:33:31 51°13.602 2°56.098 125.2 0.1 336 -999
2006-04-24 07:34:31 51°13.602 2°56.098 124.8 0.1 139 -999
2006-04-24 07:35:31 51°13.602 2°56.099 125.6 -999 286 -999
2006-04-24 07:36:31 51°13.602 2°56.098 125 -999 248 -999
2006-04-24 07:37:31 51°13.601 2°56.098 126.4 -999 29 -999
2006-04-24 07:38:31 51°13.601 2°56.099 126.2 -999 191 -999
2006-04-24 07:39:31 51°13.602 2°56.099 125.5 -999 245 -999
2006-04-24 07:40:31 51°13.601 2°56.099 126.2 -999 54 -999
2006-04-24 07:41:31 51°13.601 2°56.099 126.4 -999 217 -999
2006-04-24 07:42:28 51°13.601 2°56.098 126.6 -999 243 -999
2006-04-24 07:43:28 51°13.601 2°56.098 126.7 -999 20 -999
2006-04-24 07:44:28 51°13.601 2°56.099 126.7 -999 233 7
2006-04-24 07:45:28 51°13.601 2°56.099 126.7 -999 24 7
2006-04-24 07:46:28 51°13.601 2°56.099 126.7 -999 283 -999
2006-04-24 07:47:27 51°13.601 2°56.099 126.8 -999 27 -999
2006-04-24 07:48:28 51°13.602 2°56.1 126.2 -999 4 -999
2006-04-24 07:49:28 51°13.601 2°56.099 125.7 -999 152 -999
2006-04-24 07:50:27 51°13.602 2°56.099 126.7 -999 352 -999
2006-04-24 07:51:27 51°13.602 2°56.099 127 -999 279 7.2
2006-04-24 07:52:28 51°13.602 2°56.1 127 0.1 47 -999
2006-04-24 07:53:27 51°13.602 2°56.1 126.8 -999 282 7.2
2006-04-24 07:54:27 51°13.602 2°56.1 126.7 -999 188 7.2
2006-04-24 07:55:28 51°13.602 2°56.1 126.8 -999 280 -999
2006-04-24 07:56:28 51°13.602 2°56.1 127 -999 221 -999
2006-04-24 07:57:28 51°13.602 2°56.1 127.1 -999 338 7.2
2006-04-24 07:58:27 51°13.602 2°56.1 127.1 -999 126 5.4
2006-04-24 07:59:27 51°13.603 2°56.1 127.1 -999 209 7.3
2006-04-24 08:00:28 51°13.602 2°56.1 127.1 -999 3 -999
2006-04-24 08:01:27 51°13.602 2°56.1 127 -999 349 7.3
2006-04-24 08:02:27 51°13.602 2°56.1 127.3 -999 256 7.3
2006-04-24 08:03:27 51°13.603 2°56.1 127.1 -999 6 7.3
2006-04-24 08:04:28 51°13.603 2°56.1 127.2 -999 321 -999
2006-04-24 08:05:28 51°13.603 2°56.099 127.2 -999 158 7.5
2006-04-24 08:06:27 51°13.602 2°56.099 127.4 -999 5 -999
2006-04-24 08:07:28 51°13.602 2°56.099 127.7 -999 7 -999
2006-04-24 08:08:28 51°13.602 2°56.099 127.7 -999 355 -999
2006-04-24 08:09:28 51°13.601 2°56.1 127.7 -999 7 -999
2006-04-24 08:10:27 51°13.602 2°56.099 127.7 -999 335 7.4
2006-04-24 08:11:28 51°13.602 2°56.099 127.9 -999 120 -999
2006-04-24 08:12:28 51°13.602 2°56.099 127.7 -999 286 -999
2006-04-24 08:13:28 51°13.602 2°56.1 127.8 -999 30 -999
2006-04-24 08:14:28 51°13.602 2°56.1 128.1 -999 350 -999
2006-04-24 08:15:28 51°13.602 2°56.1 127.9 -999 161 -999
2006-04-24 08:16:27 51°13.601 2°56.1 129 -999 214 7.5
2006-04-24 08:17:27 51°13.601 2°56.1 128.3 -999 156 7.5
2006-04-24 08:18:28 51°13.6 2°56.101 127.7 -999 256 7.6
2006-04-24 08:19:28 51°13.599 2°56.1 114.9 0.2 190 7.6
2006-04-24 08:20:28 51°13.606 2°56.054 113.7 3.4 289 -999
2006-04-24 08:21:28 51°13.636 2°55.958 128.4 4.5 303 -999
2006-04-24 08:22:28 51°13.677 2°55.856 121 4.5 299 -999
2006-04-24 08:23:28 51°13.695 2°55.756 97.2 3.6 276 -999
2006-04-24 08:24:28 51°13.7 2°55.715 58.7 1.4 42 -999
2006-04-24 08:25:28 51°13.761 2°55.7 336.6 5.8 331 12
2006-04-24 08:26:27 51°13.868 2°55.613 340.1 8.1 334 12.2
2006-04-24 08:27:27 51°13.994 2°55.517 340.8 8.4 335 12.3
2006-04-24 08:28:27 51°14.121 2°55.421 340.4 8.4 333 12.2
2006-04-24 08:29:28 51°14.253 2°55.283 327.5 9.9 320 12.1
2006-04-24 08:30:27 51°14.361 2°55.079 315.1 10.6 311 12.4
2006-04-24 08:31:27 51°14.532 2°54.983 356.5 11.9 357 11.6
2006-04-24 08:32:27 51°14.738 2°54.966 359.2 12.9 359 11.2
2006-04-24 08:33:27 51°14.962 2°54.96 0.7 13.6 359 10.9
2006-04-24 08:34:27 51°15.189 2°54.952 0.3 13.6 359 10.3
2006-04-24 08:35:27 51°15.416 2°54.945 1.1 13.7 -999 10.8
2006-04-24 08:36:27 51°15.633 2°55.064 34.7 14.1 32 11.4
2006-04-24 08:37:28 51°15.798 2°55.338 60 14.2 54 11.6
2006-04-24 08:38:27 51°15.93 2°55.644 62.6 14.3 57 11.6
2006-04-24 08:39:28 51°16.068 2°55.959 59.4 14.2 53 11.8
2006-04-24 08:40:27 51°16.197 2°56.269 65.9 14.3 59 11.7
2006-04-24 08:41:27 51°16.333 2°56.58 58.9 14.3 53 11.7
2006-04-24 08:42:27 51°16.459 2°56.901 65.1 14.3 58 11.8
2006-04-24 09:00:58 51°18.779 3°2.922 55.9 14.3 50 9.9
2006-04-24 09:01:58 51°18.926 3°3.219 59 14.3 54 10.1
2006-04-24 09:02:57 51°19.069 3°3.513 54.5 14.2 50 10.1
2006-04-24 09:03:58 51°19.203 3°3.829 62.6 14.2 57 10.2
2006-04-24 09:04:58 51°19.335 3°4.141 58 14.2 53 10.2
2006-04-24 09:05:58 51°19.474 3°4.448 66.3 14.3 62 10.1
2006-04-24 09:06:58 51°19.578 3°4.794 68.7 14.4 63 10.1
2006-04-24 09:07:57 51°19.703 3°5.116 61.2 14.5 58 10